Time;durP1;ratioP1;P1;durP2;ratioP2;P2;SDS_P1;SDS_P2;PMS_P1;PMS_P2;Temp;Humidity;BMP_temperature;BMP_pressure;BME280_temperature;BME280_humidity;BME280_pressure;Samples;Min_cycle;Max_cycle;Signal;HPM_P1;HPM_P2
2023/07/16 00:01:55;;;;;;;20.53;19.33;;;;;;;;;;5116966;28;20905;-83
2023/07/16 00:04:22;;;;;;;20.77;19.47;;;;;;;;;;5118704;28;20472;-82
2023/07/16 00:06:49;;;;;;;20.70;19.60;;;;;;;;;;5117767;28;20456;-81
2023/07/16 00:09:16;;;;;;;19.97;18.77;;;;;;;;;;5118169;28;20513;-80
2023/07/16 00:11:43;;;;;;;20.80;19.70;;;;;;;;;;5118291;28;20470;-83
2023/07/16 00:14:11;;;;;;;20.70;19.30;;;;;;;;;;5118012;28;20455;-81
2023/07/16 00:16:40;;;;;;;20.70;19.50;;;;;;;;;;5117475;27;20842;-84
2023/07/16 00:19:07;;;;;;;19.77;18.77;;;;;;;;;;5118016;28;20516;-82
2023/07/16 00:21:34;;;;;;;21.43;20.03;;;;;;;;;;5118686;28;20422;-81
2023/07/16 00:24:01;;;;;;;20.90;19.70;;;;;;;;;;5117753;28;20422;-82
2023/07/16 00:26:28;;;;;;;21.00;19.90;;;;;;;;;;5116930;28;20419;-80
2023/07/16 00:28:55;;;;;;;20.40;19.20;;;;;;;;;;5117941;28;20452;-82
2023/07/16 00:31:22;;;;;;;20.80;19.60;;;;;;;;;;5117928;28;20466;-81
2023/07/16 00:33:50;;;;;;;20.77;19.43;;;;;;;;;;5117228;28;20456;-81
2023/07/16 00:36:18;;;;;;;20.53;19.47;;;;;;;;;;5116752;28;20444;-82
2023/07/16 00:38:46;;;;;;;20.90;19.60;;;;;;;;;;5117631;28;20444;-81
2023/07/16 00:41:14;;;;;;;20.53;19.43;;;;;;;;;;5117672;28;20443;-82
2023/07/16 00:43:41;;;;;;;21.33;19.90;;;;;;;;;;5118812;28;21061;-81
2023/07/16 00:46:08;;;;;;;20.87;19.67;;;;;;;;;;5118898;28;20434;-83
2023/07/16 00:48:35;;;;;;;20.83;19.73;;;;;;;;;;5119639;28;20427;-82
2023/07/16 00:51:04;;;;;;;19.93;18.73;;;;;;;;;;5118663;28;20461;-82
2023/07/16 00:53:32;;;;;;;21.00;19.50;;;;;;;;;;5117730;28;20438;-82
2023/07/16 00:55:59;;;;;;;20.77;19.53;;;;;;;;;;5118199;28;20939;-82
2023/07/16 00:58:26;;;;;;;21.10;19.90;;;;;;;;;;5119787;28;20429;-82
2023/07/16 01:00:53;;;;;;;20.63;19.53;;;;;;;;;;5118865;28;20434;-82
2023/07/16 01:03:20;;;;;;;20.50;19.30;;;;;;;;;;5118307;28;20495;-82
2023/07/16 01:05:50;;;;;;;20.50;19.20;;;;;;;;;;5118405;28;20491;-82
2023/07/16 01:08:22;;;;;;;20.20;19.00;;;;;;;;;;5118923;28;20435;-80
2023/07/16 01:10:49;;;;;;;20.77;19.67;;;;;;;;;;5119188;28;20846;-81
2023/07/16 01:13:16;;;;;;;21.70;20.50;;;;;;;;;;5116987;27;20448;-82
2023/07/16 01:15:43;;;;;;;22.07;20.60;;;;;;;;;;5117371;28;20398;-82
2023/07/16 01:18:10;;;;;;;20.80;19.67;;;;;;;;;;5118063;28;20426;-82
2023/07/16 01:20:38;;;;;;;20.80;19.60;;;;;;;;;;5117291;28;20459;-83
2023/07/16 01:23:28;;;;;;;21.23;19.93;;;;;;;;;;5117878;28;20444;-81
2023/07/16 01:26:06;;;;;;;21.07;19.97;;;;;;;;;;5116158;28;20462;-82
2023/07/16 01:28:51;;;;;;;20.60;19.50;;;;;;;;;;5117878;28;20418;-79
2023/07/16 01:31:22;;;;;;;21.20;19.90;;;;;;;;;;5117218;28;20495;-82
2023/07/16 01:33:49;;;;;;;20.67;19.50;;;;;;;;;;5117768;27;20489;-81
2023/07/16 01:36:16;;;;;;;19.70;18.70;;;;;;;;;;5116696;28;20490;-81
2023/07/16 01:38:43;;;;;;;20.90;19.50;;;;;;;;;;5116939;28;20407;-85
2023/07/16 01:41:10;;;;;;;21.50;20.20;;;;;;;;;;5116986;28;20449;-83
2023/07/16 01:43:38;;;;;;;20.30;19.10;;;;;;;;;;5117086;28;20521;-83
2023/07/16 01:46:05;;;;;;;22.63;20.47;;;;;;;;;;5116140;28;20456;-84
2023/07/16 01:48:34;;;;;;;20.33;19.03;;;;;;;;;;5117981;28;20430;-83
2023/07/16 01:51:01;;;;;;;21.73;19.97;;;;;;;;;;5117047;28;20469;-83
2023/07/16 01:53:28;;;;;;;20.13;19.03;;;;;;;;;;5117536;28;20479;-82
2023/07/16 01:55:55;;;;;;;20.03;18.93;;;;;;;;;;5116477;28;20468;-83
2023/07/16 01:58:22;;;;;;;20.17;19.07;;;;;;;;;;5117135;28;21269;-82
2023/07/16 02:00:51;;;;;;;19.03;18.03;;;;;;;;;;5117050;28;20582;-83
2023/07/16 02:03:18;;;;;;;20.30;19.07;;;;;;;;;;5117546;28;20424;-83
2023/07/16 02:05:46;;;;;;;21.03;19.73;;;;;;;;;;5116117;28;20488;-83
2023/07/16 02:08:14;;;;;;;20.03;19.00;;;;;;;;;;5117421;28;20444;-82
2023/07/16 02:10:41;;;;;;;20.77;19.57;;;;;;;;;;5116990;28;20545;-82
2023/07/16 02:13:08;;;;;;;19.83;18.63;;;;;;;;;;5116129;28;20459;-81
2023/07/16 02:15:35;;;;;;;20.10;18.90;;;;;;;;;;5115337;28;20427;-83
2023/07/16 02:18:02;;;;;;;20.50;19.40;;;;;;;;;;5116439;28;20486;-82
2023/07/16 02:20:29;;;;;;;19.97;18.70;;;;;;;;;;5116770;28;20459;-83
2023/07/16 02:22:57;;;;;;;20.50;19.40;;;;;;;;;;5116192;28;20505;-83
2023/07/16 02:25:25;;;;;;;21.00;19.80;;;;;;;;;;5115926;28;20482;-82
2023/07/16 02:27:52;;;;;;;20.00;18.80;;;;;;;;;;5115386;28;20450;-82
2023/07/16 02:30:19;;;;;;;20.10;19.00;;;;;;;;;;5116364;28;21010;-82
2023/07/16 02:32:46;;;;;;;20.13;19.00;;;;;;;;;;5115739;28;20475;-83
2023/07/16 02:35:13;;;;;;;20.80;19.50;;;;;;;;;;5117183;28;20937;-82
2023/07/16 02:37:40;;;;;;;19.83;18.73;;;;;;;;;;5115763;28;20491;-83
2023/07/16 02:40:10;;;;;;;20.60;19.50;;;;;;;;;;5116972;28;20472;-82
2023/07/16 02:42:37;;;;;;;20.20;19.03;;;;;;;;;;5116705;28;20414;-83
2023/07/16 02:45:05;;;;;;;21.13;19.87;;;;;;;;;;5116692;28;20437;-83
2023/07/16 02:47:32;;;;;;;21.03;19.80;;;;;;;;;;5115335;28;20512;-84
2023/07/16 02:49:59;;;;;;;20.43;19.37;;;;;;;;;;5115670;28;20435;-82
2023/07/16 02:52:26;;;;;;;20.20;18.80;;;;;;;;;;5115944;28;20494;-82
2023/07/16 02:54:53;;;;;;;20.10;18.90;;;;;;;;;;5131430;28;20441;-82
2023/07/16 02:57:22;;;;;;;20.43;19.23;;;;;;;;;;5132501;28;20492;-83
2023/07/16 02:59:49;;;;;;;20.00;19.00;;;;;;;;;;5133537;28;20438;-83
2023/07/16 03:02:16;;;;;;;21.00;19.80;;;;;;;;;;5132908;28;20436;-82
2023/07/16 03:04:44;;;;;;;22.67;20.43;;;;;;;;;;5123270;28;20419;-83
2023/07/16 03:07:11;;;;;;;20.63;19.53;;;;;;;;;;5115816;28;20461;-82
2023/07/16 03:09:38;;;;;;;21.10;19.90;;;;;;;;;;5115745;28;20442;-82
2023/07/16 03:12:06;;;;;;;21.00;19.80;;;;;;;;;;5115727;28;20479;-84
2023/07/16 03:14:34;;;;;;;20.87;19.70;;;;;;;;;;5115914;28;20427;-83
2023/07/16 03:17:01;;;;;;;19.97;18.70;;;;;;;;;;5113869;28;20449;-83
2023/07/16 03:19:29;;;;;;;20.80;19.23;;;;;;;;;;5113260;28;20462;-83
2023/07/16 03:21:56;;;;;;;19.63;18.63;;;;;;;;;;5113290;28;20432;-81
2023/07/16 03:24:23;;;;;;;20.33;19.00;;;;;;;;;;5112861;28;20788;-81
2023/07/16 03:26:50;;;;;;;21.13;19.93;;;;;;;;;;5112288;28;20463;-81
2023/07/16 03:29:17;;;;;;;20.17;19.00;;;;;;;;;;5112140;28;20472;-82
2023/07/16 03:31:46;;;;;;;21.27;20.07;;;;;;;;;;5112155;28;20515;-80
2023/07/16 03:34:13;;;;;;;22.00;20.50;;;;;;;;;;5112380;28;20422;-81
2023/07/16 03:36:40;;;;;;;20.83;19.33;;;;;;;;;;5114020;28;20429;-82
2023/07/16 03:39:07;;;;;;;20.80;19.47;;;;;;;;;;5115875;27;20846;-82
2023/07/16 03:41:34;;;;;;;20.60;18.97;;;;;;;;;;5116843;28;20451;-81
2023/07/16 03:44:01;;;;;;;20.20;19.10;;;;;;;;;;5116225;28;20440;-82
2023/07/16 03:46:28;;;;;;;20.47;19.33;;;;;;;;;;5114858;28;20467;-79
2023/07/16 03:48:57;;;;;;;20.17;18.93;;;;;;;;;;5115439;28;20442;-79
2023/07/16 03:51:24;;;;;;;21.13;19.80;;;;;;;;;;5116822;28;20473;-80
2023/07/16 03:53:51;;;;;;;20.43;19.33;;;;;;;;;;5116832;28;20429;-79
2023/07/16 03:56:18;;;;;;;19.77;18.67;;;;;;;;;;5116974;28;20909;-80
2023/07/16 03:58:45;;;;;;;19.93;18.73;;;;;;;;;;5116644;28;20483;-80
2023/07/16 04:01:12;;;;;;;20.07;19.07;;;;;;;;;;5117524;28;20442;-80
2023/07/16 04:03:39;;;;;;;20.40;19.10;;;;;;;;;;5116994;28;20411;-80
2023/07/16 04:06:09;;;;;;;20.53;19.17;;;;;;;;;;5116344;28;20764;-79
2023/07/16 04:08:36;;;;;;;20.80;19.50;;;;;;;;;;5117538;28;20430;-78
2023/07/16 04:11:03;;;;;;;20.47;19.10;;;;;;;;;;5115788;28;20466;-81
2023/07/16 04:13:30;;;;;;;21.40;20.10;;;;;;;;;;5116620;28;20419;-80
2023/07/16 04:15:57;;;;;;;21.00;19.83;;;;;;;;;;5115799;28;20492;-79
2023/07/16 04:18:24;;;;;;;21.00;19.70;;;;;;;;;;5116273;28;20426;-80
2023/07/16 04:20:52;;;;;;;20.83;19.60;;;;;;;;;;5115894;28;20483;-79
2023/07/16 04:23:20;;;;;;;21.00;19.63;;;;;;;;;;5116706;28;20431;-79
2023/07/16 04:25:48;;;;;;;21.20;19.83;;;;;;;;;;5115316;28;20512;-80
2023/07/16 04:28:15;;;;;;;20.57;19.17;;;;;;;;;;5116815;28;20487;-79
2023/07/16 04:30:42;;;;;;;20.23;19.10;;;;;;;;;;5115524;28;20628;-80
2023/07/16 04:33:09;;;;;;;20.47;19.07;;;;;;;;;;5116139;28;20888;-79
2023/07/16 04:35:36;;;;;;;20.60;19.40;;;;;;;;;;5115934;28;20871;-80
2023/07/16 04:38:03;;;;;;;19.30;18.20;;;;;;;;;;5116656;28;20452;-79
2023/07/16 04:40:32;;;;;;;20.70;19.60;;;;;;;;;;5115971;28;20517;-80
2023/07/16 04:42:59;;;;;;;20.23;18.93;;;;;;;;;;5116240;28;20440;-80
2023/07/16 04:45:26;;;;;;;19.70;18.50;;;;;;;;;;5115819;28;20431;-81
2023/07/16 04:47:53;;;;;;;19.80;18.67;;;;;;;;;;5116196;28;20472;-80
2023/07/16 04:50:20;;;;;;;19.80;18.30;;;;;;;;;;5116037;28;20468;-79
2023/07/16 04:52:47;;;;;;;19.40;18.20;;;;;;;;;;5115564;28;20511;-79
2023/07/16 04:55:14;;;;;;;20.30;19.20;;;;;;;;;;5116175;28;20448;-80
2023/07/16 04:57:42;;;;;;;20.47;19.17;;;;;;;;;;5115302;28;20447;-80
2023/07/16 05:00:10;;;;;;;19.80;18.63;;;;;;;;;;5115950;28;20442;-79
2023/07/16 05:02:37;;;;;;;20.87;19.67;;;;;;;;;;5114743;27;20476;-79
2023/07/16 05:05:04;;;;;;;19.97;18.83;;;;;;;;;;5115584;28;20422;-80
2023/07/16 05:07:31;;;;;;;21.47;20.17;;;;;;;;;;5115146;28;20410;-79
2023/07/16 05:09:58;;;;;;;20.03;18.93;;;;;;;;;;5115637;28;20832;-80
2023/07/16 05:12:26;;;;;;;21.80;20.30;;;;;;;;;;5115060;27;20495;-79
2023/07/16 05:14:54;;;;;;;20.50;19.10;;;;;;;;;;5115554;28;20505;-80
2023/07/16 05:17:21;;;;;;;20.43;19.10;;;;;;;;;;5115248;28;20478;-80
2023/07/16 05:19:48;;;;;;;20.63;19.13;;;;;;;;;;5115298;28;21178;-79
2023/07/16 05:22:15;;;;;;;20.90;19.47;;;;;;;;;;5115503;28;20440;-80
2023/07/16 05:24:42;;;;;;;20.63;19.43;;;;;;;;;;5115514;28;20427;-78
2023/07/16 05:27:09;;;;;;;20.23;18.97;;;;;;;;;;5115223;28;20551;-80
2023/07/16 05:29:36;;;;;;;19.70;18.60;;;;;;;;;;5114753;27;20442;-81
2023/07/16 05:32:05;;;;;;;19.73;18.67;;;;;;;;;;5114858;28;20955;-80
2023/07/16 05:34:33;;;;;;;19.73;18.37;;;;;;;;;;5115330;28;20466;-79
2023/07/16 05:37:00;;;;;;;19.83;18.73;;;;;;;;;;5115133;28;20431;-80
2023/07/16 05:39:28;;;;;;;19.30;18.07;;;;;;;;;;5114969;28;20599;-80
2023/07/16 05:41:55;;;;;;;19.60;18.30;;;;;;;;;;5115154;28;20802;-81
2023/07/16 05:44:22;;;;;;;20.33;18.93;;;;;;;;;;5115014;28;20490;-80
2023/07/16 05:46:49;;;;;;;20.80;19.40;;;;;;;;;;5114160;27;20500;-80
2023/07/16 05:49:17;;;;;;;21.30;19.80;;;;;;;;;;5114760;28;20492;-80
2023/07/16 05:51:44;;;;;;;21.20;19.83;;;;;;;;;;5114728;28;21094;-80
2023/07/16 05:54:11;;;;;;;22.47;20.03;;;;;;;;;;5114913;28;20422;-80
2023/07/16 05:56:38;;;;;;;21.27;19.90;;;;;;;;;;5114717;28;20440;-80
2023/07/16 05:59:05;;;;;;;22.73;20.90;;;;;;;;;;5114313;28;20921;-80
2023/07/16 06:01:32;;;;;;;22.33;21.03;;;;;;;;;;5114570;27;20512;-78
2023/07/16 06:03:59;;;;;;;21.53;20.00;;;;;;;;;;5114853;28;20793;-81
2023/07/16 06:06:28;;;;;;;21.70;20.00;;;;;;;;;;5113920;28;20411;-79
2023/07/16 06:08:55;;;;;;;21.90;20.50;;;;;;;;;;5114530;28;20892;-80
2023/07/16 06:11:22;;;;;;;23.00;21.30;;;;;;;;;;5114368;28;20460;-80
2023/07/16 06:13:49;;;;;;;22.50;21.10;;;;;;;;;;5114325;28;20483;-80
2023/07/16 06:16:16;;;;;;;23.90;22.30;;;;;;;;;;5113885;28;20805;-80
2023/07/16 06:18:43;;;;;;;22.63;21.23;;;;;;;;;;5115350;27;20432;-85
2023/07/16 06:21:11;;;;;;;21.53;20.23;;;;;;;;;;5133871;27;20455;-86
2023/07/16 06:23:39;;;;;;;23.57;21.60;;;;;;;;;;5136707;27;20814;-80
2023/07/16 06:26:06;;;;;;;23.23;21.83;;;;;;;;;;5135043;27;20443;-88
2023/07/16 06:28:33;;;;;;;23.40;21.63;;;;;;;;;;5137663;27;20891;-87
2023/07/16 06:31:00;;;;;;;22.80;21.30;;;;;;;;;;5137214;27;21006;-87
2023/07/16 06:33:28;;;;;;;23.23;21.63;;;;;;;;;;5137596;27;20498;-87
2023/07/16 06:35:55;;;;;;;23.23;21.63;;;;;;;;;;5150989;27;20417;-87
2023/07/16 06:38:22;;;;;;;22.77;21.17;;;;;;;;;;5158495;27;20423;-88
2023/07/16 06:40:51;;;;;;;24.17;22.30;;;;;;;;;;5158451;27;20569;-87
2023/07/16 06:43:18;;;;;;;23.47;21.90;;;;;;;;;;5157731;27;20408;-88
2023/07/16 06:45:45;;;;;;;23.07;21.57;;;;;;;;;;5157342;27;20449;-88
2023/07/16 06:48:12;;;;;;;24.13;22.43;;;;;;;;;;5156497;27;20411;-88
2023/07/16 06:50:40;;;;;;;23.73;21.97;;;;;;;;;;5156820;27;20470;-87
2023/07/16 06:53:07;;;;;;;23.20;21.70;;;;;;;;;;5156678;27;20493;-88
2023/07/16 06:55:34;;;;;;;23.13;21.43;;;;;;;;;;5156117;27;20443;-87
2023/07/16 06:58:03;;;;;;;23.03;21.40;;;;;;;;;;5157229;27;20461;-87
2023/07/16 07:00:30;;;;;;;24.90;23.13;;;;;;;;;;5158707;27;20973;-86
2023/07/16 07:02:57;;;;;;;22.97;21.57;;;;;;;;;;5158407;27;20875;-86
2023/07/16 07:05:24;;;;;;;23.10;21.70;;;;;;;;;;5159777;27;20446;-87
2023/07/16 07:07:51;;;;;;;24.10;22.50;;;;;;;;;;5159090;27;20420;-86
2023/07/16 07:10:18;;;;;;;24.50;22.83;;;;;;;;;;5157889;27;20455;-85
2023/07/16 07:12:45;;;;;;;26.07;22.53;;;;;;;;;;5161886;27;20448;-86
2023/07/16 07:15:14;;;;;;;26.20;24.37;;;;;;;;;;5162802;27;20409;-88
2023/07/16 07:17:42;;;;;;;24.07;22.50;;;;;;;;;;5160533;27;20413;-79
2023/07/16 07:20:10;;;;;;;24.47;22.97;;;;;;;;;;5160244;27;20444;-80
2023/07/16 07:22:37;;;;;;;22.57;21.17;;;;;;;;;;5160693;27;20434;-79
2023/07/16 07:25:04;;;;;;;22.30;21.00;;;;;;;;;;5160333;27;20453;-79
2023/07/16 07:27:32;;;;;;;24.10;22.20;;;;;;;;;;5160010;27;20460;-84
2023/07/16 07:29:59;;;;;;;24.27;22.33;;;;;;;;;;5141770;27;20466;-78
2023/07/16 07:32:27;;;;;;;25.20;23.50;;;;;;;;;;5138508;27;20469;-78
2023/07/16 07:34:54;;;;;;;24.07;22.47;;;;;;;;;;5138565;27;20960;-79
2023/07/16 07:37:21;;;;;;;25.77;23.97;;;;;;;;;;5138684;27;20511;-79
2023/07/16 07:39:51;;;;;;;25.10;23.03;;;;;;;;;;5138793;27;20465;-80
2023/07/16 07:42:18;;;;;;;23.63;21.93;;;;;;;;;;5139314;27;20425;-80
2023/07/16 07:44:45;;;;;;;24.97;23.10;;;;;;;;;;5139034;27;20406;-79
2023/07/16 07:47:12;;;;;;;24.47;22.70;;;;;;;;;;5138312;27;20474;-80
2023/07/16 07:49:40;;;;;;;24.60;22.80;;;;;;;;;;5138416;27;20490;-78
2023/07/16 07:52:08;;;;;;;24.47;22.67;;;;;;;;;;5138730;27;20421;-79
2023/07/16 07:54:35;;;;;;;23.30;21.73;;;;;;;;;;5138620;27;20413;-80
2023/07/16 07:57:04;;;;;;;24.30;22.70;;;;;;;;;;5137909;27;20501;-80
2023/07/16 07:59:31;;;;;;;24.30;22.60;;;;;;;;;;5136489;27;20571;-79
2023/07/16 08:01:58;;;;;;;24.63;22.73;;;;;;;;;;5123712;27;20474;-80
2023/07/16 08:04:25;;;;;;;23.90;21.97;;;;;;;;;;5139007;27;20425;-79
2023/07/16 08:06:55;;;;;;;24.00;22.30;;;;;;;;;;5150149;27;20414;-79
2023/07/16 08:09:22;;;;;;;23.80;22.20;;;;;;;;;;5159877;27;20416;-79
2023/07/16 08:11:49;;;;;;;25.17;23.27;;;;;;;;;;5159754;27;20488;-82
2023/07/16 08:14:16;;;;;;;24.47;22.50;;;;;;;;;;5148011;27;20512;-80
2023/07/16 08:16:43;;;;;;;24.43;22.53;;;;;;;;;;5138930;27;20450;-79
2023/07/16 08:19:10;;;;;;;25.00;23.40;;;;;;;;;;5138925;27;20903;-80
2023/07/16 08:21:37;;;;;;;25.37;23.13;;;;;;;;;;5137803;27;20441;-79
2023/07/16 08:24:07;;;;;;;24.70;23.00;;;;;;;;;;5138565;27;20863;-79
2023/07/16 08:26:34;;;;;;;22.97;21.63;;;;;;;;;;5137936;27;20490;-79
2023/07/16 08:29:02;;;;;;;26.77;24.40;;;;;;;;;;5142301;27;20425;-80
2023/07/16 08:31:29;;;;;;;25.70;23.80;;;;;;;;;;5138415;27;20543;-79
2023/07/16 08:33:56;;;;;;;26.63;24.50;;;;;;;;;;5137749;27;20461;-80
2023/07/16 08:36:23;;;;;;;26.03;24.20;;;;;;;;;;5139330;27;20479;-80
2023/07/16 08:38:50;;;;;;;24.80;22.93;;;;;;;;;;5137596;27;20417;-79
2023/07/16 08:41:19;;;;;;;24.60;23.10;;;;;;;;;;5137974;27;20457;-79
2023/07/16 08:43:47;;;;;;;25.03;23.40;;;;;;;;;;5141786;27;20520;-79
2023/07/16 08:46:14;;;;;;;24.07;22.17;;;;;;;;;;5145409;27;20468;-79
2023/07/16 08:48:42;;;;;;;25.00;23.30;;;;;;;;;;5154557;27;20413;-80
2023/07/16 08:51:11;;;;;;;26.43;24.73;;;;;;;;;;5153984;27;20895;-80
2023/07/16 08:53:38;;;;;;;25.77;23.90;;;;;;;;;;5154914;27;20496;-80
2023/07/16 08:56:06;;;;;;;26.23;24.33;;;;;;;;;;5152590;27;20472;-77
2023/07/16 08:58:34;;;;;;;26.33;24.60;;;;;;;;;;5148692;27;20437;-79
2023/07/16 09:01:02;;;;;;;25.57;23.77;;;;;;;;;;5143594;27;20429;-78
2023/07/16 09:03:29;;;;;;;24.57;22.93;;;;;;;;;;5148122;27;20414;-79
2023/07/16 09:05:56;;;;;;;25.30;23.40;;;;;;;;;;5146370;27;20758;-80
2023/07/16 09:08:28;;;;;;;26.87;24.83;;;;;;;;;;5159303;27;20440;-88
2023/07/16 09:10:56;;;;;;;25.93;24.13;;;;;;;;;;5164373;27;20482;-88
2023/07/16 09:13:26;;;;;;;24.13;22.53;;;;;;;;;;5161813;27;20466;-87
2023/07/16 09:15:55;;;;;;;25.03;23.13;;;;;;;;;;5160580;27;20412;-84
2023/07/16 09:18:22;;;;;;;26.80;24.90;;;;;;;;;;5157457;27;20443;-85
2023/07/16 09:20:49;;;;;;;25.23;23.53;;;;;;;;;;5159918;27;20845;-82
2023/07/16 09:23:18;;;;;;;25.90;24.10;;;;;;;;;;5159192;27;20449;-78
2023/07/16 09:25:45;;;;;;;25.13;23.43;;;;;;;;;;5157696;27;20487;-86
2023/07/16 09:28:13;;;;;;;25.60;23.93;;;;;;;;;;5153365;27;20877;-85
2023/07/16 09:30:40;;;;;;;25.47;23.67;;;;;;;;;;5116958;28;20999;-83
2023/07/16 09:33:13;;;;;;;25.63;23.90;;;;;;;;;;5116488;28;20521;-79
2023/07/16 09:35:40;;;;;;;25.00;23.40;;;;;;;;;;5116394;28;20454;-86
2023/07/16 09:38:07;;;;;;;25.97;24.30;;;;;;;;;;5117826;28;20418;-86
2023/07/16 09:40:34;;;;;;;26.10;24.50;;;;;;;;;;5117793;28;20541;-86
2023/07/16 09:43:02;;;;;;;25.20;23.40;;;;;;;;;;5116034;28;20498;-85
2023/07/16 09:45:29;;;;;;;24.80;23.40;;;;;;;;;;5115341;28;20509;-88
2023/07/16 09:47:56;;;;;;;26.10;24.00;;;;;;;;;;5116064;28;20403;-87
2023/07/16 09:50:25;;;;;;;25.20;23.50;;;;;;;;;;5117248;28;20488;-87
2023/07/16 09:52:52;;;;;;;25.10;23.60;;;;;;;;;;5117457;28;20545;-88
2023/07/16 09:55:23;;;;;;;24.67;23.07;;;;;;;;;;5116259;28;20403;-85
2023/07/16 09:57:50;;;;;;;25.93;24.10;;;;;;;;;;5114946;28;20403;-81
2023/07/16 10:00:20;;;;;;;26.47;24.67;;;;;;;;;;5114890;28;20427;-81
2023/07/16 10:02:47;;;;;;;25.17;23.20;;;;;;;;;;5115153;28;20819;-83
2023/07/16 10:05:15;;;;;;;25.67;23.87;;;;;;;;;;5115642;28;20448;-82
2023/07/16 10:07:43;;;;;;;26.27;24.40;;;;;;;;;;5114578;28;20433;-83
2023/07/16 10:10:11;;;;;;;25.27;23.57;;;;;;;;;;5114700;28;20463;-82
2023/07/16 10:12:39;;;;;;;26.77;24.73;;;;;;;;;;5114324;28;20468;-83
2023/07/16 10:15:07;;;;;;;25.17;23.63;;;;;;;;;;5114858;28;20521;-83
2023/07/16 10:17:34;;;;;;;26.90;24.80;;;;;;;;;;5113930;28;20444;-83
2023/07/16 10:20:03;;;;;;;24.97;23.27;;;;;;;;;;5115399;28;21019;-87
2023/07/16 10:22:35;;;;;;;25.27;23.50;;;;;;;;;;5116116;28;20811;-84
2023/07/16 10:25:04;;;;;;;26.53;24.60;;;;;;;;;;5117221;28;20809;-86
2023/07/16 10:27:32;;;;;;;25.13;23.40;;;;;;;;;;5117209;28;20450;-86
2023/07/16 10:30:01;;;;;;;24.27;22.67;;;;;;;;;;5118519;28;20454;-86
2023/07/16 10:32:29;;;;;;;25.33;23.60;;;;;;;;;;5118526;28;20436;-85
2023/07/16 10:34:56;;;;;;;25.93;24.13;;;;;;;;;;5116742;28;20515;-85
2023/07/16 10:37:24;;;;;;;24.83;23.13;;;;;;;;;;5117421;28;20437;-85
2023/07/16 10:39:52;;;;;;;25.43;23.73;;;;;;;;;;5119399;28;20458;-85
2023/07/16 10:42:21;;;;;;;25.40;23.50;;;;;;;;;;5118104;28;20423;-86
2023/07/16 10:44:52;;;;;;;24.27;22.50;;;;;;;;;;5118031;28;20476;-85
2023/07/16 10:47:21;;;;;;;26.20;24.47;;;;;;;;;;5118330;28;20486;-85
2023/07/16 10:49:48;;;;;;;26.20;24.60;;;;;;;;;;5116924;28;20880;-86
2023/07/16 10:52:15;;;;;;;26.33;24.63;;;;;;;;;;5116437;28;20407;-87
2023/07/16 10:54:43;;;;;;;26.50;24.80;;;;;;;;;;5116380;28;20447;-86
2023/07/16 10:57:10;;;;;;;27.00;25.30;;;;;;;;;;5115413;28;20915;-86
2023/07/16 10:59:40;;;;;;;25.83;24.10;;;;;;;;;;5115552;28;20466;-85
2023/07/16 11:02:10;;;;;;;26.17;24.37;;;;;;;;;;5115260;28;20454;-85
2023/07/16 11:04:37;;;;;;;25.83;24.27;;;;;;;;;;5114979;28;20476;-85
2023/07/16 11:07:09;;;;;;;25.90;24.10;;;;;;;;;;5114493;28;20784;-85
2023/07/16 11:09:36;;;;;;;27.60;25.90;;;;;;;;;;5114957;28;20977;-85
2023/07/16 11:12:09;;;;;;;26.43;24.20;;;;;;;;;;5116502;28;20403;-84
2023/07/16 11:14:36;;;;;;;26.30;24.30;;;;;;;;;;5116631;28;20556;-88
2023/07/16 11:17:09;;;;;;;26.70;25.00;;;;;;;;;;5116218;28;20864;-86
2023/07/16 11:19:36;;;;;;;26.23;24.53;;;;;;;;;;5116625;28;20500;-87
2023/07/16 11:22:04;;;;;;;25.80;24.20;;;;;;;;;;5115739;28;20415;-86
2023/07/16 11:24:37;;;;;;;27.40;25.53;;;;;;;;;;5114794;28;20410;-85
2023/07/16 11:27:05;;;;;;;26.07;24.37;;;;;;;;;;5112645;28;20499;-80
2023/07/16 11:29:36;;;;;;;25.40;23.60;;;;;;;;;;5113583;28;20472;-86
2023/07/16 11:32:03;;;;;;;25.67;23.97;;;;;;;;;;5121615;28;20814;-87
2023/07/16 11:34:31;;;;;;;25.47;23.87;;;;;;;;;;5119310;28;20458;-87
2023/07/16 11:37:07;;;;;;;25.57;23.60;;;;;;;;;;5113070;28;20464;-85
2023/07/16 11:39:34;;;;;;;24.77;22.90;;;;;;;;;;5114647;28;20520;-78
2023/07/16 11:42:03;;;;;;;26.07;24.20;;;;;;;;;;5115024;28;20426;-86
2023/07/16 11:44:33;;;;;;;25.40;23.70;;;;;;;;;;5114015;28;20426;-82
2023/07/16 11:47:00;;;;;;;24.83;23.13;;;;;;;;;;5114510;28;20449;-83
2023/07/16 11:49:27;;;;;;;27.10;25.37;;;;;;;;;;5115550;28;20521;-84
2023/07/16 11:51:56;;;;;;;26.03;24.33;;;;;;;;;;5115200;28;20856;-85
2023/07/16 11:54:23;;;;;;;25.13;23.57;;;;;;;;;;5115086;28;20484;-84
2023/07/16 11:56:50;;;;;;;25.80;24.10;;;;;;;;;;5114809;28;20456;-84
2023/07/16 11:59:19;;;;;;;26.43;24.63;;;;;;;;;;5118268;28;20453;-84
2023/07/16 12:01:47;;;;;;;26.30;24.60;;;;;;;;;;5117996;28;20439;-84
2023/07/16 12:04:14;;;;;;;25.80;24.10;;;;;;;;;;5117883;28;20444;-84
2023/07/16 12:06:41;;;;;;;27.47;25.50;;;;;;;;;;5118739;28;20459;-86
2023/07/16 12:09:09;;;;;;;25.63;23.83;;;;;;;;;;5119358;28;20480;-85
2023/07/16 12:11:37;;;;;;;27.10;25.40;;;;;;;;;;5119819;28;20443;-88
2023/07/16 12:14:05;;;;;;;25.10;23.40;;;;;;;;;;5120847;28;20461;-84
2023/07/16 12:16:32;;;;;;;25.57;23.97;;;;;;;;;;5120688;28;20440;-84
2023/07/16 12:18:59;;;;;;;25.63;24.03;;;;;;;;;;5120151;28;20446;-83
2023/07/16 12:21:26;;;;;;;24.43;22.90;;;;;;;;;;5119722;27;20523;-83
2023/07/16 12:23:53;;;;;;;25.97;24.20;;;;;;;;;;5119696;28;20920;-83
2023/07/16 12:26:21;;;;;;;26.13;24.43;;;;;;;;;;5119476;28;20434;-85
2023/07/16 12:28:48;;;;;;;25.60;23.90;;;;;;;;;;5118137;28;20410;-86
2023/07/16 12:31:16;;;;;;;26.57;24.90;;;;;;;;;;5119305;27;20454;-84
2023/07/16 12:33:43;;;;;;;25.60;24.00;;;;;;;;;;5118702;28;20484;-85
2023/07/16 12:36:10;;;;;;;25.37;23.77;;;;;;;;;;5118958;28;20423;-88
2023/07/16 12:38:37;;;;;;;25.17;23.47;;;;;;;;;;5119773;28;20456;-87
2023/07/16 12:41:04;;;;;;;26.50;24.63;;;;;;;;;;5120863;28;20472;-86
2023/07/16 12:43:34;;;;;;;25.70;24.10;;;;;;;;;;5119962;27;20465;-86
2023/07/16 12:46:01;;;;;;;26.17;24.53;;;;;;;;;;5118283;28;21258;-79
2023/07/16 12:48:28;;;;;;;24.87;23.30;;;;;;;;;;5115464;28;20509;-79
2023/07/16 12:50:55;;;;;;;25.17;23.57;;;;;;;;;;5116462;28;20828;-85
2023/07/16 12:53:22;;;;;;;26.57;24.87;;;;;;;;;;5119076;28;20448;-86
2023/07/16 12:55:49;;;;;;;25.17;23.37;;;;;;;;;;5118478;28;20954;-86
2023/07/16 12:58:17;;;;;;;25.23;23.53;;;;;;;;;;5119620;28;20431;-88
2023/07/16 13:00:45;;;;;;;24.70;23.10;;;;;;;;;;5117573;27;20466;-89
2023/07/16 13:03:16;;;;;;;25.80;24.10;;;;;;;;;;5118284;28;20448;-86
2023/07/16 13:05:43;;;;;;;25.60;23.90;;;;;;;;;;5117803;28;20432;-86
2023/07/16 13:08:10;;;;;;;25.07;23.33;;;;;;;;;;5118309;28;20423;-85
2023/07/16 13:10:37;;;;;;;25.17;23.47;;;;;;;;;;5117649;27;20528;-86
2023/07/16 13:13:04;;;;;;;25.20;23.27;;;;;;;;;;5119904;28;20916;-85
2023/07/16 13:15:31;;;;;;;26.87;24.87;;;;;;;;;;5125342;28;20541;-85
2023/07/16 13:18:00;;;;;;;23.77;22.27;;;;;;;;;;5122995;28;20448;-86
2023/07/16 13:20:28;;;;;;;24.73;22.90;;;;;;;;;;5122927;28;20525;-87
2023/07/16 13:22:55;;;;;;;25.90;24.13;;;;;;;;;;5127266;28;20467;-87
2023/07/16 13:25:22;;;;;;;25.33;23.63;;;;;;;;;;5154529;27;20442;-86
2023/07/16 13:27:50;;;;;;;25.73;24.07;;;;;;;;;;5172299;27;20412;-86
2023/07/16 13:30:17;;;;;;;24.33;22.63;;;;;;;;;;5162400;27;20459;-85
2023/07/16 13:32:44;;;;;;;24.60;23.10;;;;;;;;;;5139437;27;20455;-78
2023/07/16 13:35:12;;;;;;;24.77;23.17;;;;;;;;;;5137801;27;20499;-79
2023/07/16 13:37:38;;;;;;;24.80;23.07;;;;;;;;;;5136238;27;20846;-80
2023/07/16 13:40:06;;;;;;;25.30;23.60;;;;;;;;;;5137383;27;20459;-78
2023/07/16 13:42:33;;;;;;;25.07;23.37;;;;;;;;;;5136030;27;20463;-78
2023/07/16 13:45:00;;;;;;;24.10;22.60;;;;;;;;;;5136834;27;20454;-79
2023/07/16 13:47:27;;;;;;;25.10;23.30;;;;;;;;;;5136071;27;20450;-80
2023/07/16 13:49:54;;;;;;;23.40;21.90;;;;;;;;;;5136544;27;20471;-79
2023/07/16 13:52:22;;;;;;;24.47;22.77;;;;;;;;;;5139439;27;20945;-78
2023/07/16 13:54:49;;;;;;;25.40;23.77;;;;;;;;;;5139267;27;20964;-78
2023/07/16 13:57:16;;;;;;;24.30;22.77;;;;;;;;;;5136639;27;20546;-79
2023/07/16 13:59:43;;;;;;;23.93;22.33;;;;;;;;;;5136741;27;20449;-79
2023/07/16 14:02:10;;;;;;;25.10;23.40;;;;;;;;;;5136738;27;20421;-79
2023/07/16 14:04:37;;;;;;;24.60;23.00;;;;;;;;;;5135917;27;20463;-79
2023/07/16 14:07:05;;;;;;;24.57;22.67;;;;;;;;;;5136136;27;20475;-79
2023/07/16 14:09:33;;;;;;;24.97;23.07;;;;;;;;;;5136930;27;20483;-79
2023/07/16 14:12:00;;;;;;;25.43;23.43;;;;;;;;;;5136688;27;20417;-79
2023/07/16 14:14:27;;;;;;;26.00;24.30;;;;;;;;;;5136360;27;20461;-79
2023/07/16 14:16:55;;;;;;;25.30;23.60;;;;;;;;;;5134841;27;20442;-79
2023/07/16 14:19:22;;;;;;;24.83;23.13;;;;;;;;;;5135921;27;20455;-79